Time;durP1;ratioP1;P1;durP2;ratioP2;P2;SDS_P1;SDS_P2;PMS_P1;PMS_P2;Temp;Humidity;BMP_temperature;BMP_pressure;BME280_temperature;BME280_humidity;BME280_pressure;Samples;Min_cycle;Max_cycle;Signal;HPM_P1;HPM_P2
2023/05/02 00:00:10;;;;;;;;;;;12.80;76.40;;;;;;5075177;28;19991;-28
2023/05/02 00:02:35;;;;;;;;;;;12.80;76.80;;;;;;5075254;28;19958;-30
2023/05/02 00:05:01;;;;;;;;;;;12.80;76.50;;;;;;5075162;28;20068;-26
2023/05/02 00:07:26;;;;;;;;;;;12.80;76.60;;;;;;5075110;28;19909;-27
2023/05/02 00:09:52;;;;;;;;;;;12.80;76.60;;;;;;5075023;28;19913;-26
2023/05/02 00:12:17;;;;;;;;;;;12.80;76.90;;;;;;5074937;28;19914;-27
2023/05/02 00:14:43;;;;;;;;;;;12.80;77.80;;;;;;5074977;28;20313;-33
2023/05/02 00:17:16;;;;;;;;;;;12.70;77.50;;;;;;5074992;28;19947;-29
2023/05/02 00:19:41;;;;;;;;;;;12.60;77.20;;;;;;5075189;28;19913;-27
2023/05/02 00:22:07;;;;;;;;;;;12.60;77.30;;;;;;5074836;28;20338;-27
2023/05/02 00:24:32;;;;;;;;;;;12.60;77.40;;;;;;5074575;28;19920;-25
2023/05/02 00:26:58;;;;;;;;;;;12.60;77.60;;;;;;5074770;28;19909;-28
2023/05/02 00:29:23;;;;;;;;;;;12.50;77.60;;;;;;5074626;28;19966;-27
2023/05/02 00:31:49;;;;;;;;;;;12.50;77.30;;;;;;5074601;28;20369;-30
2023/05/02 00:34:14;;;;;;;;;;;12.50;77.60;;;;;;5074559;28;19909;-29
2023/05/02 00:36:39;;;;;;;;;;;12.50;77.30;;;;;;5074600;28;20275;-29
2023/05/02 00:39:05;;;;;;;;;;;12.50;77.20;;;;;;5074535;28;19908;-26
2023/05/02 00:41:30;;;;;;;;;;;12.50;77.20;;;;;;5074607;28;19908;-27
2023/05/02 00:43:56;;;;;;;;;;;12.50;77.20;;;;;;5074516;28;19932;-34
2023/05/02 00:46:22;;;;;;;;;;;12.50;77.20;;;;;;5074409;28;19915;-26
2023/05/02 00:48:47;;;;;;;;;;;12.50;77.20;;;;;;5074284;28;19916;-28
2023/05/02 00:51:13;;;;;;;;;;;12.50;77.20;;;;;;5074412;28;20105;-30
2023/05/02 00:53:39;;;;;;;;;;;12.40;77.20;;;;;;5074261;28;19909;-29
2023/05/02 00:56:05;;;;;;;;;;;12.40;77.20;;;;;;5074267;28;19999;-27
2023/05/02 00:58:30;;;;;;;;;;;12.40;77.30;;;;;;5074471;28;19951;-26
2023/05/02 01:01:05;;;;;;;;;;;12.40;77.30;;;;;;5074190;28;19961;-28
2023/05/02 01:03:48;;;;;;;;;;;12.40;77.20;;;;;;5074052;28;20280;-27
2023/05/02 01:06:33;;;;;;;;;;;12.50;77.10;;;;;;5074037;28;19908;-27
2023/05/02 01:09:01;;;;;;;;;;;12.50;77.10;;;;;;5073796;28;19913;-27
2023/05/02 01:11:34;;;;;;;;;;;12.50;77.00;;;;;;5073908;28;19943;-26
2023/05/02 01:14:00;;;;;;;;;;;12.60;77.10;;;;;;5073796;28;19915;-27
2023/05/02 01:16:27;;;;;;;;;;;12.50;77.20;;;;;;5072875;28;19913;-28
2023/05/02 01:18:52;;;;;;;;;;;12.50;77.00;;;;;;5073825;28;20008;-34
2023/05/02 01:21:18;;;;;;;;;;;12.50;76.90;;;;;;5073932;28;20015;-29
2023/05/02 01:23:50;;;;;;;;;;;12.60;77.00;;;;;;5073840;28;19966;-27
2023/05/02 01:26:15;;;;;;;;;;;12.60;76.80;;;;;;5073662;28;19981;-30
2023/05/02 01:28:54;;;;;;;;;;;12.60;76.80;;;;;;5073544;28;19917;-26
2023/05/02 01:31:20;;;;;;;;;;;12.60;76.70;;;;;;5073520;28;19909;-26
2023/05/02 01:33:46;;;;;;;;;;;12.70;76.60;;;;;;5073566;28;19999;-28
2023/05/02 01:36:13;;;;;;;;;;;12.70;76.60;;;;;;5073397;28;20328;-30
2023/05/02 01:38:39;;;;;;;;;;;12.70;77.00;;;;;;5073411;28;19971;-27
2023/05/02 01:41:06;;;;;;;;;;;12.70;76.80;;;;;;5071987;28;19975;-27
2023/05/02 01:43:33;;;;;;;;;;;12.70;77.40;;;;;;5073452;28;19909;-27
2023/05/02 01:46:00;;;;;;;;;;;12.60;77.30;;;;;;5071930;28;19915;-28
2023/05/02 01:48:27;;;;;;;;;;;12.60;77.60;;;;;;5073268;28;19919;-26
2023/05/02 01:50:53;;;;;;;;;;;12.50;77.60;;;;;;5073246;28;20014;-25
2023/05/02 01:53:21;;;;;;;;;;;12.50;77.50;;;;;;5073090;28;20004;-27
2023/05/02 01:55:48;;;;;;;;;;;12.60;78.70;;;;;;5073199;28;19923;-27
2023/05/02 01:58:15;;;;;;;;;;;12.60;79.40;;;;;;5072941;28;19909;-26
2023/05/02 02:00:43;;;;;;;;;;;12.50;78.40;;;;;;5072872;28;20271;-30
2023/05/02 02:03:10;;;;;;;;;;;12.50;78.30;;;;;;5072914;28;19916;-28
2023/05/02 02:05:36;;;;;;;;;;;12.50;78.90;;;;;;5072942;28;19979;-27
2023/05/02 02:08:02;;;;;;;;;;;12.50;78.90;;;;;;5072862;28;19913;-26
2023/05/02 02:10:29;;;;;;;;;;;12.50;78.60;;;;;;5072739;28;19913;-26
2023/05/02 02:13:03;;;;;;;;;;;12.50;78.50;;;;;;5072798;28;19916;-26
2023/05/02 02:15:30;;;;;;;;;;;12.50;78.70;;;;;;5072278;28;20277;-27
2023/05/02 02:18:00;;;;;;;;;;;12.50;78.60;;;;;;5072548;28;20316;-27
2023/05/02 02:20:27;;;;;;;;;;;12.50;78.90;;;;;;5072651;28;19909;-27
2023/05/02 02:22:53;;;;;;;;;;;12.50;79.20;;;;;;5072637;28;19915;-28
2023/05/02 02:25:19;;;;;;;;;;;12.40;79.70;;;;;;5072369;28;20425;-27
2023/05/02 02:27:44;;;;;;;;;;;12.40;80.50;;;;;;5072523;28;20001;-26
2023/05/02 02:30:11;;;;;;;;;;;12.30;80.30;;;;;;5072325;28;19917;-32
2023/05/02 02:32:37;;;;;;;;;;;12.20;81.20;;;;;;5072610;28;19920;-28
2023/05/02 02:35:03;;;;;;;;;;;12.10;80.30;;;;;;5072421;28;19908;-26
2023/05/02 02:37:31;;;;;;;;;;;12.00;80.40;;;;;;5072276;28;19912;-28
2023/05/02 02:40:02;;;;;;;;;;;12.00;80.60;;;;;;5072695;28;20272;-26
2023/05/02 02:42:40;;;;;;;;;;;12.00;80.90;;;;;;5072310;28;19917;-27
2023/05/02 02:45:08;;;;;;;;;;;11.90;80.50;;;;;;5072615;28;19908;-27
2023/05/02 02:47:47;;;;;;;;;;;11.80;80.30;;;;;;5072302;28;19908;-26
2023/05/02 02:50:26;;;;;;;;;;;11.70;80.10;;;;;;5072106;28;19913;-26
2023/05/02 02:52:57;;;;;;;;;;;11.70;80.50;;;;;;5072195;28;19912;-26
2023/05/02 02:55:32;;;;;;;;;;;11.70;80.00;;;;;;5072077;28;19915;-26
2023/05/02 02:58:02;;;;;;;;;;;11.70;80.00;;;;;;5072109;28;19908;-28
2023/05/02 03:00:28;;;;;;;;;;;11.70;80.00;;;;;;5071946;28;19956;-29
2023/05/02 03:02:55;;;;;;;;;;;11.60;79.80;;;;;;5072043;28;19931;-36
2023/05/02 03:05:21;;;;;;;;;;;11.60;79.80;;;;;;5071807;28;19908;-27
2023/05/02 03:07:47;;;;;;;;;;;11.60;79.90;;;;;;5071961;28;19908;-26
2023/05/02 03:10:13;;;;;;;;;;;11.60;79.70;;;;;;5070429;28;19990;-25
2023/05/02 03:12:42;;;;;;;;;;;11.60;79.80;;;;;;5071853;28;19996;-28
2023/05/02 03:15:26;;;;;;;;;;;11.60;79.80;;;;;;5072048;28;19909;-26
2023/05/02 03:17:52;;;;;;;;;;;11.60;79.70;;;;;;5072004;28;20003;-26
2023/05/02 03:20:18;;;;;;;;;;;11.60;79.60;;;;;;5071867;28;20016;-27
2023/05/02 03:22:43;;;;;;;;;;;11.60;79.60;;;;;;5071918;28;19909;-26
2023/05/02 03:25:08;;;;;;;;;;;11.60;79.40;;;;;;5071720;28;19920;-27
2023/05/02 03:27:34;;;;;;;;;;;11.60;79.50;;;;;;5073968;28;19909;-26
2023/05/02 03:30:00;;;;;;;;;;;11.60;79.30;;;;;;5075912;28;19912;-27
2023/05/02 03:32:26;;;;;;;;;;;11.50;79.30;;;;;;5075938;28;19987;-26
2023/05/02 03:34:51;;;;;;;;;;;11.50;79.40;;;;;;5074353;28;19963;-27
2023/05/02 03:37:17;;;;;;;;;;;11.40;79.30;;;;;;5075708;28;19908;-27
2023/05/02 03:39:43;;;;;;;;;;;11.40;79.30;;;;;;5075677;28;19909;-32
2023/05/02 03:42:08;;;;;;;;;;;11.40;79.40;;;;;;5075758;28;20475;-27
2023/05/02 03:44:33;;;;;;;;;;;11.30;79.30;;;;;;5075620;28;19908;-26
2023/05/02 03:46:59;;;;;;;;;;;11.30;79.40;;;;;;5075969;28;19916;-27
2023/05/02 03:49:24;;;;;;;;;;;11.30;79.30;;;;;;5075411;28;19958;-25
2023/05/02 03:51:50;;;;;;;;;;;11.30;79.30;;;;;;5075560;28;19909;-31
2023/05/02 03:54:16;;;;;;;;;;;11.30;79.30;;;;;;5075846;28;19944;-30
2023/05/02 03:56:42;;;;;;;;;;;11.30;79.10;;;;;;5073846;28;19977;-27
2023/05/02 03:59:08;;;;;;;;;;;11.30;79.10;;;;;;5075257;28;19930;-27
2023/05/02 04:01:34;;;;;;;;;;;11.30;79.10;;;;;;5073879;28;19909;-26
2023/05/02 04:03:59;;;;;;;;;;;11.40;78.90;;;;;;5075171;28;19908;-26
2023/05/02 04:06:25;;;;;;;;;;;11.40;78.90;;;;;;5073778;28;20119;-26
2023/05/02 04:08:50;;;;;;;;;;;11.40;78.90;;;;;;5075132;28;19981;-27
2023/05/02 04:11:16;;;;;;;;;;;11.30;78.80;;;;;;5074978;28;19909;-27
2023/05/02 04:13:41;;;;;;;;;;;11.30;78.70;;;;;;5074974;28;19912;-27
2023/05/02 04:16:08;;;;;;;;;;;11.30;78.70;;;;;;5074983;28;19909;-29
2023/05/02 04:18:33;;;;;;;;;;;11.20;78.80;;;;;;5074884;28;19908;-27
2023/05/02 04:20:59;;;;;;;;;;;11.20;78.90;;;;;;5074966;28;19909;-29
2023/05/02 04:23:24;;;;;;;;;;;11.10;79.50;;;;;;5073167;28;20280;-25
2023/05/02 04:25:53;;;;;;;;;;;11.10;79.00;;;;;;5073687;28;19908;-26
2023/05/02 04:28:19;;;;;;;;;;;11.10;78.90;;;;;;5073575;28;19915;-29
2023/05/02 04:30:45;;;;;;;;;;;11.20;78.90;;;;;;5073613;28;19991;-27
2023/05/02 04:33:10;;;;;;;;;;;11.20;78.60;;;;;;5073428;28;19952;-29
2023/05/02 04:35:38;;;;;;;;;;;11.20;78.50;;;;;;5073520;28;20023;-30
2023/05/02 04:38:03;;;;;;;;;;;11.20;78.50;;;;;;5073149;28;20011;-26
2023/05/02 04:40:29;;;;;;;;;;;11.20;78.30;;;;;;5073386;28;19952;-26
2023/05/02 04:42:54;;;;;;;;;;;11.20;78.20;;;;;;5073443;28;19908;-26
2023/05/02 04:45:20;;;;;;;;;;;11.20;77.90;;;;;;5073504;28;19908;-27
2023/05/02 04:47:45;;;;;;;;;;;11.20;77.60;;;;;;5073645;28;19908;-25
2023/05/02 04:50:11;;;;;;;;;;;11.20;77.50;;;;;;5073150;28;19994;-27
2023/05/02 04:52:36;;;;;;;;;;;11.20;77.50;;;;;;5073308;28;20208;-28
2023/05/02 04:55:02;;;;;;;;;;;11.20;77.40;;;;;;5073525;28;20042;-30
2023/05/02 04:57:27;;;;;;;;;;;11.20;76.80;;;;;;5073230;28;19915;-27
2023/05/02 04:59:53;;;;;;;;;;;11.20;76.80;;;;;;5073091;28;19909;-28
2023/05/02 05:02:18;;;;;;;;;;;11.20;76.60;;;;;;5073418;28;20377;-27
2023/05/02 05:04:44;;;;;;;;;;;11.20;76.40;;;;;;5073120;28;20334;-26
2023/05/02 05:07:10;;;;;;;;;;;11.20;76.20;;;;;;5072978;28;20007;-29
2023/05/02 05:09:35;;;;;;;;;;;11.20;76.20;;;;;;5072835;28;20002;-36
2023/05/02 05:12:01;;;;;;;;;;;11.30;76.20;;;;;;5072981;28;19912;-28
2023/05/02 05:14:27;;;;;;;;;;;11.30;75.90;;;;;;5072956;28;19909;-26
2023/05/02 05:16:52;;;;;;;;;;;11.30;75.10;;;;;;5072879;28;19920;-26
2023/05/02 05:19:18;;;;;;;;;;;11.40;75.10;;;;;;5072894;28;20317;-27
2023/05/02 05:21:43;;;;;;;;;;;11.30;74.70;;;;;;5072826;28;20001;-27
2023/05/02 05:24:09;;;;;;;;;;;11.30;74.20;;;;;;5010938;28;1758076;-27
2023/05/02 05:26:34;;;;;;;;;;;11.20;73.80;;;;;;5073718;28;19919;-27
2023/05/02 05:29:00;;;;;;;;;;;11.20;74.00;;;;;;5073596;28;20315;-27
2023/05/02 05:31:25;;;;;;;;;;;11.20;74.00;;;;;;5073566;28;19924;-26
2023/05/02 05:33:51;;;;;;;;;;;11.20;73.80;;;;;;5073555;28;20003;-26
2023/05/02 05:36:16;;;;;;;;;;;11.10;74.00;;;;;;5073495;28;20427;-30
2023/05/02 05:38:42;;;;;;;;;;;11.20;74.00;;;;;;5073467;28;20338;-27
2023/05/02 05:41:07;;;;;;;;;;;11.20;74.00;;;;;;5073728;28;19919;-26
2023/05/02 05:43:33;;;;;;;;;;;11.20;74.00;;;;;;5073338;28;19916;-32
2023/05/02 05:45:59;;;;;;;;;;;11.30;73.90;;;;;;5073345;28;19912;-27
2023/05/02 05:48:24;;;;;;;;;;;11.30;73.90;;;;;;5073115;28;20360;-26
2023/05/02 05:50:51;;;;;;;;;;;11.30;73.30;;;;;;5072464;28;19917;-29
2023/05/02 05:53:17;;;;;;;;;;;11.30;73.30;;;;;;5073040;28;20355;-26
2023/05/02 05:55:42;;;;;;;;;;;11.30;71.80;;;;;;5073089;28;20000;-27
2023/05/02 05:58:08;;;;;;;;;;;11.20;72.00;;;;;;5073119;28;20010;-28
2023/05/02 06:00:34;;;;;;;;;;;11.20;72.10;;;;;;5072870;28;19919;-27
2023/05/02 06:02:59;;;;;;;;;;;11.10;72.00;;;;;;5072930;28;19913;-27
2023/05/02 06:05:25;;;;;;;;;;;11.10;72.00;;;;;;5072793;28;19991;-27
2023/05/02 06:07:50;;;;;;;;;;;11.10;71.90;;;;;;5072956;28;19916;-27
2023/05/02 06:10:16;;;;;;;;;;;11.10;72.00;;;;;;5072972;28;19955;-26
2023/05/02 06:12:41;;;;;;;;;;;11.10;71.70;;;;;;5072779;28;19912;-27
2023/05/02 06:15:07;;;;;;;;;;;11.00;71.90;;;;;;5072651;28;20002;-28
2023/05/02 06:17:33;;;;;;;;;;;11.10;71.90;;;;;;5072581;28;20292;-27
2023/05/02 06:19:58;;;;;;;;;;;11.00;71.90;;;;;;5072622;28;20391;-27
2023/05/02 06:22:24;;;;;;;;;;;11.00;71.80;;;;;;5072469;28;19912;-25
2023/05/02 06:24:49;;;;;;;;;;;11.00;72.00;;;;;;5072561;28;20003;-28
2023/05/02 06:27:15;;;;;;;;;;;11.00;72.20;;;;;;5072443;28;19913;-29
2023/05/02 06:29:40;;;;;;;;;;;11.00;72.10;;;;;;5071032;28;19917;-27
2023/05/02 06:32:06;;;;;;;;;;;11.10;72.20;;;;;;5072500;28;19919;-27
2023/05/02 06:34:32;;;;;;;;;;;11.20;72.20;;;;;;5072328;28;20408;-31
2023/05/02 06:36:58;;;;;;;;;;;11.30;71.70;;;;;;5072432;28;20272;-26
2023/05/02 06:39:23;;;;;;;;;;;11.40;71.30;;;;;;5072310;28;19913;-29
2023/05/02 06:41:49;;;;;;;;;;;11.30;71.30;;;;;;5072715;28;19943;-26
2023/05/02 06:44:15;;;;;;;;;;;11.30;70.80;;;;;;5070893;28;19913;-27
2023/05/02 06:46:40;;;;;;;;;;;11.30;71.20;;;;;;5072258;28;19935;-35
2023/05/02 06:49:06;;;;;;;;;;;11.30;71.20;;;;;;5072160;28;19916;-26
2023/05/02 06:51:31;;;;;;;;;;;11.40;71.10;;;;;;5072230;28;19913;-27
2023/05/02 06:53:57;;;;;;;;;;;11.40;70.90;;;;;;5072225;28;19974;-25
2023/05/02 06:56:24;;;;;;;;;;;11.50;70.60;;;;;;5072197;28;19912;-29
2023/05/02 06:58:50;;;;;;;;;;;11.50;70.20;;;;;;5072107;28;19935;-27
2023/05/02 07:01:15;;;;;;;;;;;11.50;70.40;;;;;;5072019;28;19912;-30
2023/05/02 07:03:41;;;;;;;;;;;11.50;70.00;;;;;;5072044;28;19916;-27
2023/05/02 07:06:06;;;;;;;;;;;11.50;69.80;;;;;;5072062;28;20020;-40
2023/05/02 07:08:32;;;;;;;;;;;11.60;70.00;;;;;;5071926;28;20023;-26
2023/05/02 07:10:57;;;;;;;;;;;11.60;69.00;;;;;;5071876;28;19913;-28
2023/05/02 07:13:23;;;;;;;;;;;11.60;69.20;;;;;;5071886;28;19913;-28
2023/05/02 07:15:48;;;;;;;;;;;11.60;69.00;;;;;;5071928;28;19913;-31
2023/05/02 07:18:14;;;;;;;;;;;11.70;68.40;;;;;;5071837;28;19963;-26
2023/05/02 07:20:41;;;;;;;;;;;11.70;68.00;;;;;;5071907;28;19916;-26
2023/05/02 07:23:07;;;;;;;;;;;11.70;67.60;;;;;;5072019;28;19959;-26
2023/05/02 07:25:33;;;;;;;;;;;11.70;67.90;;;;;;5071738;28;19912;-27
2023/05/02 07:27:58;;;;;;;;;;;11.70;66.80;;;;;;5071821;28;20284;-26
2023/05/02 07:30:24;;;;;;;;;;;11.70;67.20;;;;;;5071629;28;20292;-28
2023/05/02 07:32:50;;;;;;;;;;;11.70;66.70;;;;;;5071642;28;19912;-31
2023/05/02 07:35:15;;;;;;;;;;;11.70;66.10;;;;;;5071777;28;19920;-26
2023/05/02 07:37:41;;;;;;;;;;;11.70;65.70;;;;;;5071128;28;19966;-31
2023/05/02 07:40:08;;;;;;;;;;;11.70;66.20;;;;;;5071609;28;19913;-26
2023/05/02 07:42:33;;;;;;;;;;;11.70;66.90;;;;;;5071638;28;19912;-26
2023/05/02 07:44:59;;;;;;;;;;;11.80;66.60;;;;;;5070313;28;19913;-25
2023/05/02 07:47:25;;;;;;;;;;;11.90;66.10;;;;;;5071821;28;20386;-26
2023/05/02 07:49:51;;;;;;;;;;;11.90;65.60;;;;;;5071339;28;19924;-28
2023/05/02 07:52:16;;;;;;;;;;;12.00;65.60;;;;;;5071797;28;20280;-27
2023/05/02 07:54:42;;;;;;;;;;;12.00;64.50;;;;;;5071280;28;19912;-29
2023/05/02 07:57:07;;;;;;;;;;;12.00;64.20;;;;;;5071599;28;19962;-27
2023/05/02 07:59:33;;;;;;;;;;;12.00;64.70;;;;;;5071193;28;20015;-33
2023/05/02 08:01:58;;;;;;;;;;;12.00;65.00;;;;;;5071083;28;19913;-29
2023/05/02 08:04:24;;;;;;;;;;;12.00;65.30;;;;;;5069857;28;19913;-27
2023/05/02 08:06:50;;;;;;;;;;;12.00;65.40;;;;;;5071384;28;19969;-29
2023/05/02 08:09:16;;;;;;;;;;;11.90;65.70;;;;;;5071111;28;19952;-26
2023/05/02 08:11:41;;;;;;;;;;;11.80;65.70;;;;;;5070912;28;20317;-28
2023/05/02 08:14:06;;;;;;;;;;;11.80;65.90;;;;;;5074062;28;20384;-26
2023/05/02 08:16:32;;;;;;;;;;;11.80;66.00;;;;;;5074811;28;19919;-32
2023/05/02 08:18:57;;;;;;;;;;;11.90;66.20;;;;;;5074602;28;19913;-26
2023/05/02 08:21:23;;;;;;;;;;;12.00;65.30;;;;;;5074709;28;20283;-26
2023/05/02 08:23:48;;;;;;;;;;;12.00;65.50;;;;;;5074691;28;19928;-27
2023/05/02 08:26:14;;;;;;;;;;;12.10;64.60;;;;;;5074622;28;19989;-28
2023/05/02 08:28:40;;;;;;;;;;;12.10;64.50;;;;;;5074855;28;20487;-32
2023/05/02 08:31:05;;;;;;;;;;;12.20;64.10;;;;;;5073187;28;19913;-26
2023/05/02 08:33:31;;;;;;;;;;;12.20;62.40;;;;;;5073320;28;19919;-26
2023/05/02 08:35:56;;;;;;;;;;;12.20;63.20;;;;;;5074865;28;20403;-25
2023/05/02 08:38:22;;;;;;;;;;;12.20;62.90;;;;;;5074797;28;19912;-29
2023/05/02 08:40:47;;;;;;;;;;;12.30;61.60;;;;;;5074562;28;19971;-26
2023/05/02 08:43:15;;;;;;;;;;;12.20;62.50;;;;;;5074338;28;19920;-27
2023/05/02 08:45:43;;;;;;;;;;;12.30;62.20;;;;;;5074354;28;20140;-28
2023/05/02 08:48:10;;;;;;;;;;;12.20;62.40;;;;;;5074519;28;20368;-27
2023/05/02 08:50:40;;;;;;;;;;;12.30;61.20;;;;;;5074269;28;19923;-27
2023/05/02 08:53:07;;;;;;;;;;;12.40;60.60;;;;;;5074321;28;20288;-26
2023/05/02 08:55:38;;;;;;;;;;;12.50;59.20;;;;;;5074285;28;19916;-28
2023/05/02 08:58:05;;;;;;;;;;;12.50;60.60;;;;;;5074316;28;19912;-28
2023/05/02 09:00:31;;;;;;;;;;;12.60;59.10;;;;;;5074302;28;19920;-27
2023/05/02 09:02:59;;;;;;;;;;;12.70;58.10;;;;;;5074227;28;19951;-26
2023/05/02 09:05:25;;;;;;;;;;;12.80;57.00;;;;;;5074043;28;19952;-28
2023/05/02 09:07:51;;;;;;;;;;;12.70;56.20;;;;;;5073878;28;19963;-29
2023/05/02 09:10:16;;;;;;;;;;;12.70;57.10;;;;;;5074080;28;19917;-26
2023/05/02 09:12:42;;;;;;;;;;;12.70;58.10;;;;;;5074206;28;19951;-28
2023/05/02 09:15:12;;;;;;;;;;;12.80;56.70;;;;;;5074473;28;19960;-26
2023/05/02 09:17:41;;;;;;;;;;;12.80;55.70;;;;;;5073091;28;19974;-32
2023/05/02 09:20:07;;;;;;;;;;;12.70;55.30;;;;;;5073809;28;20383;-27
2023/05/02 09:22:33;;;;;;;;;;;12.60;55.40;;;;;;5073615;28;19919;-26
2023/05/02 09:24:59;;;;;;;;;;;12.60;54.70;;;;;;5072417;28;19920;-26
2023/05/02 09:27:26;;;;;;;;;;;12.60;55.70;;;;;;5072077;28;19940;-30
2023/05/02 09:29:51;;;;;;;;;;;12.70;55.00;;;;;;5073541;28;19965;-26
2023/05/02 09:32:17;;;;;;;;;;;12.70;54.70;;;;;;5073784;28;20318;-27
2023/05/02 09:35:02;;;;;;;;;;;12.70;54.00;;;;;;5073458;28;19912;-28
2023/05/02 09:37:34;;;;;;;;;;;12.70;55.50;;;;;;5073174;28;19981;-28
2023/05/02 09:40:06;;;;;;;;;;;12.70;55.10;;;;;;5073431;28;19984;-26
2023/05/02 09:42:32;;;;;;;;;;;12.80;53.90;;;;;;5073151;28;19966;-27
2023/05/02 09:44:57;;;;;;;;;;;12.80;55.20;;;;;;5073203;28;19912;-26
2023/05/02 09:47:25;;;;;;;;;;;13.00;55.10;;;;;;5073189;28;19912;-32
2023/05/02 09:49:51;;;;;;;;;;;13.20;54.60;;;;;;5072929;28;20057;-31
2023/05/02 09:52:22;;;;;;;;;;;13.30;53.70;;;;;;5072991;28;20007;-27
2023/05/02 09:54:52;;;;;;;;;;;13.40;53.60;;;;;;5073081;28;20380;-27
2023/05/02 09:57:17;;;;;;;;;;;13.30;52.50;;;;;;5073101;28;20053;-27
2023/05/02 09:59:55;;;;;;;;;;;13.20;51.30;;;;;;5072944;28;19995;-27
2023/05/02 10:02:22;;;;;;;;;;;12.90;53.00;;;;;;5072701;28;19912;-27
2023/05/02 10:04:48;;;;;;;;;;;12.90;52.80;;;;;;5072640;28;19920;-26
2023/05/02 10:07:15;;;;;;;;;;;12.80;52.70;;;;;;5072503;28;20453;-29
2023/05/02 10:09:42;;;;;;;;;;;12.90;53.10;;;;;;5072482;28;20249;-29
2023/05/02 10:12:07;;;;;;;;;;;13.00;53.30;;;;;;5072681;28;19920;-26
2023/05/02 10:14:38;;;;;;;;;;;13.10;53.40;;;;;;5072464;28;19978;-27
2023/05/02 10:17:04;;;;;;;;;;;13.10;51.90;;;;;;5071140;28;19958;-28
2023/05/02 10:19:35;;;;;;;;;;;13.10;52.10;;;;;;5072461;28;19920;-28
2023/05/02 10:22:01;;;;;;;;;;;13.10;52.70;;;;;;5072580;28;19908;-31
2023/05/02 10:24:27;;;;;;;;;;;13.20;53.70;;;;;;5072290;28;19921;-25
2023/05/02 10:26:53;;;;;;;;;;;13.50;53.70;;;;;;5071071;28;20368;-28
2023/05/02 10:29:19;;;;;;;;;;;13.70;53.50;;;;;;5072210;28;19958;-31
2023/05/02 10:31:45;;;;;;;;;;;13.80;51.40;;;;;;5072238;28;19988;-29
2023/05/02 10:34:10;;;;;;;;;;;13.80;50.90;;;;;;5072334;28;19912;-28
2023/05/02 10:36:36;;;;;;;;;;;13.70;51.20;;;;;;5071849;28;19912;-29
2023/05/02 10:39:02;;;;;;;;;;;13.60;51.90;;;;;;5072074;28;19947;-29
2023/05/02 10:41:29;;;;;;;;;;;13.50;51.80;;;;;;5072385;28;19908;-27
2023/05/02 10:43:55;;;;;;;;;;;13.50;51.40;;;;;;5072123;28;19915;-27
2023/05/02 10:46:40;;;;;;;;;;;13.50;50.40;;;;;;5072045;28;20474;-28
2023/05/02 10:49:09;;;;;;;;;;;13.60;51.40;;;;;;5072225;28;19921;-28
2023/05/02 10:51:36;;;;;;;;;;;13.70;50.90;;;;;;5070777;28;20376;-27
2023/05/02 10:54:16;;;;;;;;;;;13.80;51.10;;;;;;5072049;28;20245;-27
2023/05/02 10:57:02;;;;;;;;;;;13.90;51.70;;;;;;5072348;28;19970;-27
2023/05/02 10:59:33;;;;;;;;;;;14.10;51.60;;;;;;5072247;28;20401;-28
2023/05/02 11:02:00;;;;;;;;;;;14.10;48.10;;;;;;5071953;28;19909;-27
2023/05/02 11:04:45;;;;;;;;;;;14.00;49.50;;;;;;5072102;28;19908;-27
2023/05/02 11:07:17;;;;;;;;;;;14.00;49.70;;;;;;5071969;28;19908;-30
2023/05/02 11:09:43;;;;;;;;;;;14.10;50.10;;;;;;5071679;28;20301;-28
2023/05/02 11:12:08;;;;;;;;;;;14.20;50.00;;;;;;5072189;28;19909;-26
2023/05/02 11:14:37;;;;;;;;;;;14.30;48.00;;;;;;5071601;28;19910;-32
2023/05/02 11:17:08;;;;;;;;;;;14.20;50.00;;;;;;5071798;28;20387;-27
2023/05/02 11:19:36;;;;;;;;;;;14.20;49.40;;;;;;5071503;28;19915;-27
2023/05/02 11:22:27;;;;;;;;;;;14.30;48.90;;;;;;5071679;28;19913;-28
2023/05/02 11:24:52;;;;;;;;;;;14.30;48.90;;;;;;5071065;28;19960;-29
2023/05/02 11:27:36;;;;;;;;;;;14.30;47.80;;;;;;5071939;28;20005;-26
2023/05/02 11:30:04;;;;;;;;;;;14.30;47.00;;;;;;5071474;28;19923;-31
2023/05/02 11:32:46;;;;;;;;;;;14.30;47.60;;;;;;5071629;28;19915;-26
2023/05/02 11:35:21;;;;;;;;;;;14.30;48.50;;;;;;5072000;28;19912;-28
2023/05/02 11:37:57;;;;;;;;;;;14.40;48.60;;;;;;5071525;28;20364;-27
2023/05/02 11:40:23;;;;;;;;;;;14.50;48.50;;;;;;5071383;28;19916;-28
2023/05/02 11:42:48;;;;;;;;;;;14.60;47.90;;;;;;5071420;28;19916;-28
2023/05/02 11:45:14;;;;;;;;;;;14.60;47.60;;;;;;5071364;28;19908;-27
2023/05/02 11:47:40;;;;;;;;;;;14.60;48.20;;;;;;5072282;28;19916;-26
2023/05/02 11:50:06;;;;;;;;;;;14.70;48.30;;;;;;5075411;28;19920;-28
2023/05/02 11:52:39;;;;;;;;;;;14.80;48.60;;;;;;5075485;28;20316;-28
2023/05/02 11:55:05;;;;;;;;;;;14.90;47.40;;;;;;5075577;28;19909;-29
2023/05/02 11:57:34;;;;;;;;;;;14.90;47.10;;;;;;5075063;28;19913;-28
2023/05/02 12:00:00;;;;;;;;;;;14.90;47.90;;;;;;5075238;28;19908;-28
2023/05/02 12:02:39;;;;;;;;;;;14.90;46.40;;;;;;5075163;28;19916;-29
2023/05/02 12:05:05;;;;;;;;;;;14.80;46.90;;;;;;5075062;28;20366;-27
2023/05/02 12:07:37;;;;;;;;;;;14.80;46.90;;;;;;5074840;28;19908;-30
2023/05/02 12:10:03;;;;;;;;;;;14.90;47.40;;;;;;5074603;28;20007;-33
2023/05/02 12:12:29;;;;;;;;;;;14.90;47.80;;;;;;5074628;28;19948;-28
2023/05/02 12:14:55;;;;;;;;;;;15.00;45.70;;;;;;5074854;28;19915;-27
2023/05/02 12:17:20;;;;;;;;;;;15.00;44.80;;;;;;5075221;28;19908;-26
2023/05/02 12:19:47;;;;;;;;;;;14.90;46.40;;;;;;5074783;28;20003;-28
2023/05/02 12:22:13;;;;;;;;;;;14.90;45.50;;;;;;5074520;28;20012;-30
2023/05/02 12:24:40;;;;;;;;;;;14.70;45.70;;;;;;5074425;28;19956;-27
2023/05/02 12:27:14;;;;;;;;;;;14.70;47.00;;;;;;5074830;28;20355;-28
2023/05/02 12:29:44;;;;;;;;;;;14.80;47.50;;;;;;5074598;28;19912;-28
2023/05/02 12:32:10;;;;;;;;;;;14.90;46.10;;;;;;5074733;28;20288;-26
2023/05/02 12:34:36;;;;;;;;;;;14.90;45.60;;;;;;5074440;28;19913;-29
2023/05/02 12:37:02;;;;;;;;;;;14.90;45.00;;;;;;5074789;28;19912;-28
2023/05/02 12:39:34;;;;;;;;;;;14.80;45.90;;;;;;5074321;28;19969;-27
2023/05/02 12:41:59;;;;;;;;;;;14.80;45.50;;;;;;5074628;28;19908;-26
2023/05/02 12:44:35;;;;;;;;;;;14.80;45.30;;;;;;5074335;28;20261;-30
2023/05/02 12:47:00;;;;;;;;;;;14.90;46.00;;;;;;5074455;28;20322;-28
2023/05/02 12:49:26;;;;;;;;;;;15.00;46.50;;;;;;5074236;28;20055;-28
2023/05/02 12:51:52;;;;;;;;;;;15.20;45.20;;;;;;5074342;28;19912;-29
2023/05/02 12:54:20;;;;;;;;;;;15.20;45.40;;;;;;5074260;28;19908;-27
2023/05/02 12:56:46;;;;;;;;;;;15.40;46.00;;;;;;5074216;28;20331;-29
2023/05/02 12:59:27;;;;;;;;;;;15.50;45.60;;;;;;5073928;28;19912;-26
2023/05/02 13:01:53;;;;;;;;;;;15.60;45.40;;;;;;5074244;28;19909;-30
2023/05/02 13:04:18;;;;;;;;;;;15.60;45.20;;;;;;5074028;28;19915;-26
2023/05/02 13:06:44;;;;;;;;;;;15.70;44.30;;;;;;5073786;28;19935;-26
2023/05/02 13:09:09;;;;;;;;;;;15.70;45.00;;;;;;5073594;28;19919;-28
2023/05/02 13:11:35;;;;;;;;;;;15.70;45.40;;;;;;5074008;28;19915;-26
2023/05/02 13:14:03;;;;;;;;;;;15.70;45.20;;;;;;5074210;28;19908;-26
2023/05/02 13:16:29;;;;;;;;;;;15.70;45.90;;;;;;5073849;28;19951;-25
2023/05/02 13:18:54;;;;;;;;;;;15.90;45.80;;;;;;5073659;28;20400;-26
2023/05/02 13:21:20;;;;;;;;;;;15.90;45.80;;;;;;5072414;28;19919;-26
2023/05/02 13:23:49;;;;;;;;;;;16.00;45.50;;;;;;5073167;28;19997;-26
2023/05/02 13:26:15;;;;;;;;;;;16.10;45.40;;;;;;5073845;28;19996;-25
2023/05/02 13:28:40;;;;;;;;;;;16.20;43.60;;;;;;5072310;28;19991;-26
2023/05/02 13:31:06;;;;;;;;;;;16.10;43.90;;;;;;5073333;28;19958;-27
2023/05/02 13:33:32;;;;;;;;;;;16.10;44.70;;;;;;5073510;28;20244;-26
2023/05/02 13:35:58;;;;;;;;;;;16.20;45.30;;;;;;5073423;28;20424;-26
2023/05/02 13:38:24;;;;;;;;;;;16.40;44.70;;;;;;5073271;28;19913;-27
2023/05/02 13:40:49;;;;;;;;;;;16.50;45.20;;;;;;5072952;28;19913;-29
2023/05/02 13:43:15;;;;;;;;;;;16.50;42.60;;;;;;5073307;28;20634;-32
2023/05/02 13:45:41;;;;;;;;;;;16.40;43.80;;;;;;5073131;28;19913;-26
2023/05/02 13:48:06;;;;;;;;;;;16.50;44.50;;;;;;5073134;28;19912;-26
2023/05/02 13:50:36;;;;;;;;;;;16.40;42.50;;;;;;5073049;28;19916;-28
2023/05/02 13:53:02;;;;;;;;;;;16.40;44.00;;;;;;5073173;28;20406;-26
2023/05/02 13:55:27;;;;;;;;;;;16.50;44.10;;;;;;5073078;28;19977;-27
2023/05/02 13:57:53;;;;;;;;;;;16.60;43.20;;;;;;5073096;28;19912;-29
2023/05/02 14:00:19;;;;;;;;;;;16.50;43.80;;;;;;5073099;28;19913;-26
2023/05/02 14:02:47;;;;;;;;;;;16.60;43.60;;;;;;5072961;28;19965;-27
2023/05/02 14:05:13;;;;;;;;;;;16.70;44.50;;;;;;5071568;28;20433;-27
2023/05/02 14:07:38;;;;;;;;;;;16.80;43.80;;;;;;5071457;28;19962;-26
2023/05/02 14:10:04;;;;;;;;;;;16.90;44.20;;;;;;5072214;28;19986;-32
2023/05/02 14:12:30;;;;;;;;;;;16.90;44.80;;;;;;5072399;28;20435;-26
2023/05/02 14:14:56;;;;;;;;;;;17.00;44.90;;;;;;5072287;28;19912;-28